Time;durP1;ratioP1;P1;durP2;ratioP2;P2;SDS_P1;SDS_P2;PMS_P1;PMS_P2;Temp;Humidity;BMP_temperature;BMP_pressure;BME280_temperature;BME280_humidity;BME280_pressure;Samples;Min_cycle;Max_cycle;Signal;HPM_P1;HPM_P2
2022/07/05 00:00:19;;;;;;;1.73;1.55;;;18.10;99.90;;;;;;5033031;28;20175;-62
2022/07/05 00:02:45;;;;;;;2.72;1.70;;;18.00;99.90;;;;;;5032425;28;20249;-62
2022/07/05 00:05:11;;;;;;;2.42;1.42;;;17.90;99.90;;;;;;5032488;28;20209;-62
2022/07/05 00:07:36;;;;;;;1.60;1.42;;;17.80;99.90;;;;;;5032581;28;20562;-62
2022/07/05 00:10:03;;;;;;;3.38;1.63;;;17.70;99.90;;;;;;5032498;28;20182;-62
2022/07/05 00:12:32;;;;;;;3.85;1.67;;;17.60;99.90;;;;;;5032748;28;20339;-61
2022/07/05 00:14:58;;;;;;;2.05;1.40;;;17.50;99.90;;;;;;5032624;28;20221;-61
2022/07/05 00:17:23;;;;;;;1.92;1.65;;;17.40;99.90;;;;;;5031913;28;20529;-62
2022/07/05 00:19:49;;;;;;;1.90;1.65;;;17.40;99.90;;;;;;5032052;28;20183;-61
2022/07/05 00:22:15;;;;;;;3.15;1.58;;;17.40;99.90;;;;;;5031978;28;20236;-61
2022/07/05 00:24:40;;;;;;;3.08;1.35;;;17.30;99.90;;;;;;5032607;28;20209;-62
2022/07/05 00:27:06;;;;;;;4.20;1.30;;;17.30;99.90;;;;;;5032250;28;20212;-62
2022/07/05 00:29:31;;;;;;;2.38;1.30;;;17.30;99.90;;;;;;5032597;28;20182;-61
2022/07/05 00:31:57;;;;;;;1.58;1.38;;;17.30;99.90;;;;;;5032337;28;20174;-62
2022/07/05 00:34:23;;;;;;;1.40;1.30;;;17.20;99.90;;;;;;5032511;28;20280;-62
2022/07/05 00:36:48;;;;;;;2.08;1.20;;;17.10;99.90;;;;;;5032156;28;20261;-62
2022/07/05 00:39:14;;;;;;;1.33;1.15;;;17.00;99.90;;;;;;5031907;28;20245;-62
2022/07/05 00:41:39;;;;;;;1.13;1.13;;;17.00;99.90;;;;;;5032170;28;20201;-62
2022/07/05 00:44:08;;;;;;;2.72;1.20;;;17.00;99.90;;;;;;5032325;28;20202;-62
2022/07/05 00:46:34;;;;;;;2.33;1.20;;;17.00;99.90;;;;;;5031643;28;20186;-62
2022/07/05 00:49:02;;;;;;;2.08;1.25;;;17.00;99.90;;;;;;5031818;28;20220;-62
2022/07/05 00:51:34;;;;;;;2.78;1.10;;;16.90;99.90;;;;;;5031524;28;20177;-62
2022/07/05 00:54:00;;;;;;;2.22;1.40;;;16.90;99.90;;;;;;5031589;28;20279;-63
2022/07/05 00:56:26;;;;;;;2.17;1.20;;;16.80;99.90;;;;;;5031103;28;20737;-62
2022/07/05 00:58:52;;;;;;;2.15;1.27;;;16.80;99.90;;;;;;5031959;28;20190;-62
2022/07/05 01:01:19;;;;;;;1.50;1.40;;;16.70;99.90;;;;;;5031510;28;20256;-62
2022/07/05 01:03:45;;;;;;;1.50;1.40;;;16.70;99.90;;;;;;5031819;28;20178;-62
2022/07/05 01:06:12;;;;;;;1.98;0.98;;;16.60;99.90;;;;;;5031075;28;20186;-62
2022/07/05 01:08:40;;;;;;;2.20;1.30;;;16.50;99.90;;;;;;5031604;28;20312;-62
2022/07/05 01:11:07;;;;;;;1.85;1.23;;;16.50;99.90;;;;;;5031786;28;20182;-63
2022/07/05 01:13:34;;;;;;;1.05;1.05;;;16.50;99.90;;;;;;5030541;28;20189;-63
2022/07/05 01:16:00;;;;;;;1.02;0.88;;;16.40;99.90;;;;;;5031227;28;20208;-62
2022/07/05 01:18:26;;;;;;;0.98;0.98;;;16.30;99.90;;;;;;5030880;28;20182;-62
2022/07/05 01:20:52;;;;;;;1.85;0.93;;;16.20;99.90;;;;;;5030259;28;20189;-62
2022/07/05 01:23:18;;;;;;;1.45;1.13;;;16.10;99.90;;;;;;5031229;28;20197;-62
2022/07/05 01:25:47;;;;;;;1.10;1.00;;;16.00;99.90;;;;;;5030703;28;20186;-62
2022/07/05 01:28:13;;;;;;;1.48;0.93;;;16.00;99.90;;;;;;5031380;28;20231;-62
2022/07/05 01:30:40;;;;;;;1.13;0.90;;;16.00;99.90;;;;;;5031036;28;20220;-62
2022/07/05 01:33:06;;;;;;;2.13;0.98;;;16.00;99.90;;;;;;5031478;28;20189;-62
2022/07/05 01:35:33;;;;;;;0.90;0.90;;;16.00;99.90;;;;;;5030688;28;20264;-62
2022/07/05 01:37:59;;;;;;;1.38;1.05;;;16.00;99.90;;;;;;5030683;28;20648;-62
2022/07/05 01:40:24;;;;;;;2.13;1.23;;;16.00;99.90;;;;;;5029574;28;20272;-62
2022/07/05 01:42:51;;;;;;;1.63;1.13;;;16.00;99.90;;;;;;5031068;28;20645;-62
2022/07/05 01:48:07;;;;;;;1.38;1.10;;;16.10;99.90;;;;;;5030130;28;20228;-62
2022/07/05 01:50:37;;;;;;;1.40;1.23;;;16.10;99.90;;;;;;5030398;28;20190;-62
2022/07/05 01:53:03;;;;;;;4.03;1.15;;;16.00;99.90;;;;;;5031001;28;20215;-62
2022/07/05 01:55:29;;;;;;;1.15;1.10;;;16.00;99.90;;;;;;5030710;28;20641;-62
2022/07/05 01:57:54;;;;;;;1.17;1.05;;;16.00;99.90;;;;;;5030120;28;20201;-62
2022/07/05 02:00:20;;;;;;;1.23;1.13;;;15.90;99.90;;;;;;5030939;28;20184;-62
2022/07/05 02:02:46;;;;;;;1.50;1.30;;;15.90;99.90;;;;;;5030393;28;20194;-62
2022/07/05 02:05:12;;;;;;;2.17;1.20;;;15.90;99.90;;;;;;5030603;28;20198;-63
2022/07/05 02:07:47;;;;;;;2.22;1.25;;;15.80;99.90;;;;;;5030691;28;20304;-62
2022/07/05 02:10:12;;;;;;;1.95;1.20;;;15.80;99.90;;;;;;5030902;28;20185;-62
2022/07/05 02:12:38;;;;;;;3.15;1.40;;;15.80;99.90;;;;;;5030683;28;20644;-62
2022/07/05 02:15:04;;;;;;;1.13;1.08;;;15.80;99.90;;;;;;5030955;28;20189;-62
2022/07/05 02:17:29;;;;;;;1.52;1.20;;;15.80;99.90;;;;;;5030736;28;20190;-63
2022/07/05 02:19:55;;;;;;;1.30;1.20;;;15.80;99.90;;;;;;5030755;28;20178;-62
2022/07/05 02:22:20;;;;;;;5.05;1.20;;;15.80;99.90;;;;;;5030952;28;20204;-63
2022/07/05 02:24:46;;;;;;;1.40;1.30;;;15.80;99.90;;;;;;5031725;28;20261;-62
2022/07/05 02:27:12;;;;;;;1.77;1.38;;;15.80;99.90;;;;;;5033898;28;20657;-62
2022/07/05 02:29:37;;;;;;;1.90;1.20;;;15.80;99.90;;;;;;5034101;28;20677;-62
2022/07/05 02:32:03;;;;;;;1.52;1.42;;;15.80;99.90;;;;;;5034382;28;20265;-62
2022/07/05 02:34:28;;;;;;;1.27;1.27;;;15.80;99.90;;;;;;5034476;28;20273;-62
2022/07/05 02:36:54;;;;;;;1.27;1.13;;;15.70;99.90;;;;;;5034158;28;20194;-62
2022/07/05 02:39:19;;;;;;;3.03;1.10;;;15.50;99.90;;;;;;5033903;28;20221;-63
2022/07/05 02:41:45;;;;;;;1.38;1.27;;;15.50;99.90;;;;;;5034670;28;20170;-63
2022/07/05 02:44:11;;;;;;;1.98;1.33;;;15.40;99.90;;;;;;5034131;28;20178;-62
2022/07/05 02:46:37;;;;;;;1.80;1.67;;;15.50;99.90;;;;;;5033375;28;20183;-62
2022/07/05 02:49:02;;;;;;;3.67;1.92;;;15.40;99.90;;;;;;5033170;28;20222;-65
2022/07/05 02:51:28;;;;;;;2.75;1.80;;;15.40;99.90;;;;;;5034017;28;20171;-65
2022/07/05 02:53:53;;;;;;;3.05;1.50;;;15.40;99.90;;;;;;5033998;28;20660;-65
2022/07/05 02:56:19;;;;;;;1.60;1.50;;;15.40;99.90;;;;;;5033716;28;20269;-65
2022/07/05 02:58:44;;;;;;;2.55;1.75;;;15.40;99.90;;;;;;5033708;28;20178;-66
2022/07/05 03:01:10;;;;;;;1.65;1.30;;;15.50;99.90;;;;;;5033831;28;20325;-65
2022/07/05 03:03:35;;;;;;;1.48;1.30;;;15.50;99.90;;;;;;5033850;28;20174;-65
2022/07/05 03:06:01;;;;;;;4.60;1.27;;;15.40;99.90;;;;;;5033968;28;20192;-65
2022/07/05 03:08:27;;;;;;;1.20;1.20;;;15.50;99.90;;;;;;5033542;28;20276;-65
2022/07/05 03:10:52;;;;;;;1.70;1.40;;;15.50;99.90;;;;;;5033850;28;20174;-65
2022/07/05 03:13:17;;;;;;;1.90;1.40;;;15.40;99.90;;;;;;5033424;28;20174;-65
2022/07/05 03:15:43;;;;;;;1.30;1.20;;;15.40;99.90;;;;;;5033940;28;20178;-65
2022/07/05 03:18:09;;;;;;;1.65;1.20;;;15.30;99.90;;;;;;5033176;28;20696;-65
2022/07/05 03:20:35;;;;;;;2.20;1.30;;;15.30;99.90;;;;;;5033490;28;20217;-66
2022/07/05 03:23:01;;;;;;;3.20;2.05;;;15.30;99.90;;;;;;5033112;28;20217;-65
2022/07/05 03:25:26;;;;;;;3.13;1.17;;;15.20;99.90;;;;;;5033620;28;20174;-66
2022/07/05 03:27:52;;;;;;;2.67;1.67;;;15.10;99.90;;;;;;5033166;28;20205;-66
2022/07/05 03:30:18;;;;;;;1.20;1.20;;;15.00;99.90;;;;;;5033159;28;20343;-65
2022/07/05 03:32:43;;;;;;;2.22;1.30;;;15.00;99.90;;;;;;5032977;28;20182;-65
2022/07/05 03:35:09;;;;;;;1.88;1.38;;;15.00;99.90;;;;;;5033417;28;20597;-65
2022/07/05 03:37:35;;;;;;;1.40;1.30;;;15.00;99.90;;;;;;5031764;28;20193;-65
2022/07/05 03:40:00;;;;;;;3.63;1.30;;;15.00;99.90;;;;;;5015297;28;20680;-66
2022/07/05 03:42:26;;;;;;;1.42;1.33;;;15.00;99.90;;;;;;5033572;28;20325;-65
2022/07/05 03:44:52;;;;;;;1.60;1.50;;;15.00;99.90;;;;;;5030710;28;20276;-66
2022/07/05 03:47:17;;;;;;;1.40;1.30;;;15.10;99.90;;;;;;5032556;28;20221;-66
2022/07/05 03:49:43;;;;;;;1.92;1.40;;;15.10;99.90;;;;;;5034373;28;20181;-66
2022/07/05 03:52:08;;;;;;;1.45;1.40;;;15.10;99.90;;;;;;5015433;28;20182;-66
2022/07/05 03:54:34;;;;;;;2.08;1.40;;;15.10;99.90;;;;;;5033123;28;20352;-65
2022/07/05 03:56:59;;;;;;;1.13;1.10;;;15.10;99.90;;;;;;5030917;28;20217;-66
2022/07/05 03:59:25;;;;;;;1.73;1.38;;;15.10;99.90;;;;;;5032727;28;20182;-66
2022/07/05 04:01:50;;;;;;;1.42;1.30;;;15.10;99.90;;;;;;5033168;28;20591;-65
2022/07/05 04:04:16;;;;;;;1.20;1.20;;;15.10;99.90;;;;;;5030075;28;20170;-62
2022/07/05 04:06:41;;;;;;;1.50;1.40;;;15.10;99.90;;;;;;5032758;28;20178;-73
2022/07/05 04:09:07;;;;;;;2.17;1.38;;;15.10;99.90;;;;;;5032430;28;20713;-70
2022/07/05 04:11:32;;;;;;;1.80;1.30;;;15.20;99.90;;;;;;5031700;28;20514;-67
2022/07/05 04:13:58;;;;;;;1.85;1.10;;;15.20;99.90;;;;;;5032896;28;20213;-69
2022/07/05 04:16:23;;;;;;;1.35;1.25;;;15.20;99.90;;;;;;5032578;28;20177;-68
2022/07/05 04:18:49;;;;;;;2.50;1.60;;;15.20;99.90;;;;;;5032547;28;20194;-67
2022/07/05 04:21:14;;;;;;;1.50;1.40;;;15.30;99.90;;;;;;5031445;28;20252;-68
2022/07/05 04:23:40;;;;;;;1.60;1.25;;;15.40;99.90;;;;;;5032728;28;20193;-69
2022/07/05 04:26:05;;;;;;;1.63;1.42;;;15.50;99.90;;;;;;5048363;28;20209;-66
2022/07/05 04:28:31;;;;;;;3.45;1.20;;;15.90;99.90;;;;;;5040115;28;20222;-65
2022/07/05 04:30:57;;;;;;;2.13;1.08;;;16.20;99.90;;;;;;5032346;28;20179;-70
2022/07/05 04:33:24;;;;;;;1.40;1.30;;;16.60;99.90;;;;;;5032928;28;20273;-67
2022/07/05 04:35:50;;;;;;;3.15;1.60;;;17.00;99.90;;;;;;5031034;28;20182;-66
2022/07/05 04:38:15;;;;;;;3.13;1.20;;;17.50;99.90;;;;;;5031611;28;20236;-69
2022/07/05 04:40:41;;;;;;;3.28;1.60;;;17.90;99.90;;;;;;5031886;28;20652;-67
2022/07/05 04:43:07;;;;;;;5.53;3.55;;;18.30;99.90;;;;;;5032236;28;20239;-65
2022/07/05 04:45:33;;;;;;;30.77;18.83;;;18.70;99.90;;;;;;5031174;28;20182;-66
2022/07/05 04:47:59;;;;;;;16.35;9.00;;;19.10;99.90;;;;;;5031558;28;20224;-62
2022/07/05 04:50:24;;;;;;;9.80;6.80;;;19.60;99.50;;;;;;5032042;28;20768;-62
2022/07/05 04:52:50;;;;;;;5.80;4.30;;;20.10;98.60;;;;;;5031705;28;20186;-64
2022/07/05 04:55:15;;;;;;;1.40;1.30;;;20.60;98.00;;;;;;5031735;28;20224;-65
2022/07/05 04:57:42;;;;;;;1.50;1.20;;;21.10;97.10;;;;;;5030870;28;20193;-65
2022/07/05 05:00:10;;;;;;;1.52;1.20;;;21.60;95.90;;;;;;5032522;28;20182;-65
2022/07/05 05:02:35;;;;;;;1.40;1.30;;;22.00;94.60;;;;;;5031625;28;20182;-64
2022/07/05 05:05:01;;;;;;;1.08;1.08;;;22.50;93.70;;;;;;5032110;28;20266;-65
2022/07/05 05:07:27;;;;;;;1.17;1.17;;;22.90;92.80;;;;;;5031785;28;20197;-65
2022/07/05 05:09:53;;;;;;;3.22;1.40;;;23.40;92.10;;;;;;5031570;28;20268;-65
2022/07/05 05:12:18;;;;;;;1.90;1.40;;;23.80;91.20;;;;;;5031915;28;20174;-64
2022/07/05 05:14:44;;;;;;;2.42;1.50;;;24.10;90.50;;;;;;5034401;28;20264;-66
2022/07/05 05:17:09;;;;;;;6.03;2.00;;;24.40;90.00;;;;;;5033676;28;20218;-64
2022/07/05 05:19:35;;;;;;;1.92;1.60;;;24.70;87.80;;;;;;5031581;28;20183;-64
2022/07/05 05:22:00;;;;;;;1.92;1.27;;;25.10;86.70;;;;;;5031607;28;20186;-68
2022/07/05 05:24:26;;;;;;;3.72;1.63;;;25.40;85.50;;;;;;5031737;28;20182;-65
2022/07/05 05:26:52;;;;;;;1.10;1.10;;;25.70;84.60;;;;;;5031543;28;20197;-64
2022/07/05 05:29:18;;;;;;;2.65;1.48;;;26.10;82.90;;;;;;5031096;28;20256;-64
2022/07/05 05:31:44;;;;;;;3.55;1.50;;;26.40;81.10;;;;;;5031376;28;20208;-65
2022/07/05 05:34:10;;;;;;;4.07;1.38;;;26.80;79.50;;;;;;5025649;28;20186;-65
2022/07/05 05:36:36;;;;;;;1.95;1.35;;;27.10;77.80;;;;;;5031035;28;20178;-65
2022/07/05 05:39:02;;;;;;;1.25;1.00;;;27.40;75.80;;;;;;5013068;28;20768;-65
2022/07/05 05:41:27;;;;;;;4.18;1.40;;;27.70;74.00;;;;;;5016580;28;20182;-66
2022/07/05 05:43:53;;;;;;;4.07;1.45;;;28.00;70.80;;;;;;5038885;28;20178;-66
2022/07/05 05:46:18;;;;;;;3.15;1.83;;;28.10;67.60;;;;;;5031355;28;20208;-66
2022/07/05 05:48:43;;;;;;;2.38;1.80;;;28.40;64.70;;;;;;5031467;28;20677;-69
2022/07/05 05:51:09;;;;;;;3.33;1.30;;;28.70;64.10;;;;;;5030919;28;20265;-73
2022/07/05 05:53:34;;;;;;;2.17;1.20;;;29.00;63.30;;;;;;5031318;28;20185;-66
2022/07/05 05:56:00;;;;;;;2.85;1.20;;;29.30;61.40;;;;;;5031157;28;20529;-66
2022/07/05 05:58:26;;;;;;;2.15;1.30;;;29.50;60.70;;;;;;5031126;28;20194;-66
2022/07/05 06:00:52;;;;;;;2.63;1.30;;;29.70;59.70;;;;;;5033789;28;20174;-66
2022/07/05 06:03:22;;;;;;;1.33;1.10;;;29.70;58.10;;;;;;5032687;28;20611;-66
2022/07/05 06:05:48;;;;;;;3.08;1.30;;;29.70;58.20;;;;;;5031345;28;20186;-66
2022/07/05 06:08:14;;;;;;;1.30;1.20;;;29.90;57.70;;;;;;5025009;28;20214;-66
2022/07/05 06:10:40;;;;;;;3.28;1.20;;;30.00;57.20;;;;;;5034668;28;20182;-66
2022/07/05 06:13:08;;;;;;;1.55;1.15;;;30.30;57.00;;;;;;5035337;28;20178;-66
2022/07/05 06:15:34;;;;;;;2.67;1.10;;;30.40;57.00;;;;;;5034882;28;20200;-66
2022/07/05 06:17:59;;;;;;;1.90;1.60;;;30.80;56.00;;;;;;5035384;28;20186;-66
2022/07/05 06:20:30;;;;;;;2.70;1.20;;;31.30;54.00;;;;;;5016899;28;20201;-66
2022/07/05 06:22:57;;;;;;;1.70;1.30;;;31.60;53.10;;;;;;5035028;28;20564;-66
2022/07/05 06:25:23;;;;;;;1.80;1.50;;;31.40;52.00;;;;;;5033451;28;20728;-66
2022/07/05 06:27:54;;;;;;;1.95;1.77;;;31.10;53.10;;;;;;5021926;28;20313;-66
2022/07/05 06:30:21;;;;;;;1.58;1.40;;;31.20;52.50;;;;;;5015435;28;20179;-66
2022/07/05 06:32:48;;;;;;;1.83;1.52;;;31.10;52.40;;;;;;5025272;28;20182;-66
2022/07/05 06:35:14;;;;;;;2.10;1.25;;;30.80;53.50;;;;;;5034755;28;20768;-67
2022/07/05 06:37:52;;;;;;;3.25;1.40;;;31.00;54.40;;;;;;5034951;28;20730;-67
2022/07/05 06:40:19;;;;;;;3.05;1.50;;;31.70;53.70;;;;;;5034891;28;20229;-66
2022/07/05 06:42:45;;;;;;;9.85;1.48;;;32.20;52.40;;;;;;5035108;28;20202;-67
2022/07/05 06:45:11;;;;;;;2.70;1.50;;;32.30;51.90;;;;;;5035103;28;20208;-67
2022/07/05 06:47:37;;;;;;;2.28;1.50;;;32.80;51.70;;;;;;5034709;28;20204;-67
2022/07/05 06:50:04;;;;;;;2.20;1.42;;;33.50;49.40;;;;;;5034570;28;20189;-67
2022/07/05 06:52:32;;;;;;;2.00;1.73;;;34.10;48.30;;;;;;5034658;28;20181;-67
2022/07/05 06:54:58;;;;;;;3.22;1.40;;;34.30;47.60;;;;;;5034889;28;20728;-67
2022/07/05 06:57:24;;;;;;;1.70;1.42;;;34.60;46.60;;;;;;5034475;28;20185;-67
2022/07/05 06:59:50;;;;;;;2.58;1.40;;;34.90;46.80;;;;;;5034776;28;20517;-67
2022/07/05 07:02:16;;;;;;;12.05;5.72;;;35.20;46.20;;;;;;5034456;28;20655;-67
2022/07/05 07:04:41;;;;;;;4.50;2.15;;;35.50;44.70;;;;;;5034608;28;20191;-67
2022/07/05 07:09:17;;;;;;;2.17;1.40;;;35.80;44.10;;;;;;5034446;28;20178;-67
2022/07/05 07:09:56;;;;;;;6.72;1.48;;;35.40;44.10;;;;;;5034471;28;20193;-67
2022/07/05 07:12:22;;;;;;;4.50;1.50;;;34.80;42.80;;;;;;5033004;28;20188;-67
2022/07/05 07:14:47;;;;;;;3.40;1.40;;;34.60;44.70;;;;;;5034383;28;20181;-67
2022/07/05 07:17:13;;;;;;;3.47;1.50;;;34.20;45.30;;;;;;5034355;28;20173;-67
2022/07/05 07:19:38;;;;;;;1.83;1.40;;;33.90;45.70;;;;;;5034284;28;20205;-67
2022/07/05 07:22:04;;;;;;;2.30;1.70;;;33.90;46.20;;;;;;5034416;28;20277;-67
2022/07/05 07:24:29;;;;;;;5.95;1.25;;;34.30;45.70;;;;;;5034233;28;20202;-67
2022/07/05 07:27:04;;;;;;;4.03;1.63;;;34.60;44.50;;;;;;5034094;28;20169;-67
2022/07/05 07:29:35;;;;;;;1.50;1.20;;;35.00;44.40;;;;;;5034221;28;20180;-67
2022/07/05 07:32:00;;;;;;;1.95;1.50;;;35.30;44.10;;;;;;5034115;28;20562;-67
2022/07/05 07:34:28;;;;;;;4.25;2.28;;;35.40;43.80;;;;;;5034128;28;20181;-67
2022/07/05 07:36:54;;;;;;;3.00;2.45;;;35.20;44.40;;;;;;5033814;28;20186;-67
2022/07/05 07:39:20;;;;;;;3.95;1.13;;;35.40;44.40;;;;;;5033862;28;20225;-67
2022/07/05 07:41:46;;;;;;;2.05;1.20;;;35.40;43.60;;;;;;5033830;28;20178;-67
2022/07/05 07:44:11;;;;;;;2.45;1.10;;;35.20;43.70;;;;;;5033794;28;20651;-67
2022/07/05 07:46:39;;;;;;;1.35;1.08;;;34.70;43.90;;;;;;5033824;28;20260;-67
2022/07/05 07:49:05;;;;;;;3.42;1.35;;;34.80;44.10;;;;;;5033693;28;20247;-67
2022/07/05 07:51:31;;;;;;;1.67;0.98;;;35.00;44.30;;;;;;5033624;28;20193;-67
2022/07/05 07:53:56;;;;;;;2.92;1.30;;;35.20;43.70;;;;;;5033743;28;20174;-67
2022/07/05 07:56:22;;;;;;;2.47;1.30;;;35.40;43.20;;;;;;5033465;28;20173;-67
2022/07/05 07:58:47;;;;;;;4.47;1.05;;;35.30;43.70;;;;;;5033520;28;20182;-67
2022/07/05 08:01:14;;;;;;;4.90;1.20;;;35.00;43.30;;;;;;5033496;28;20180;-67
2022/07/05 08:03:43;;;;;;;1.45;0.82;;;34.70;42.40;;;;;;5033605;28;20178;-67
2022/07/05 08:06:10;;;;;;;1.88;1.20;;;34.80;43.80;;;;;;5033441;28;20232;-66
2022/07/05 08:08:36;;;;;;;1.65;1.00;;;34.90;43.50;;;;;;5033203;28;20213;-67
2022/07/05 08:11:02;;;;;;;2.45;1.08;;;35.00;42.20;;;;;;5033375;28;20178;-67
2022/07/05 08:13:27;;;;;;;1.40;1.30;;;35.10;41.90;;;;;;5033361;28;20184;-66
2022/07/05 08:15:53;;;;;;;3.10;1.40;;;35.40;42.80;;;;;;5033297;28;20574;-67
2022/07/05 08:23:46;;;;;;;2.85;1.10;;;34.90;44.00;;;;;;5013016;28;20181;-67
2022/07/05 08:26:12;;;;;;;1.08;1.02;;;34.40;42.00;;;;;;5013266;28;20542;-67
2022/07/05 08:28:37;;;;;;;4.43;1.05;;;33.90;42.50;;;;;;5013207;28;20214;-67
2022/07/05 08:31:03;;;;;;;1.00;1.00;;;33.80;44.30;;;;;;5013301;28;20179;-67
2022/07/05 08:33:28;;;;;;;1.30;1.00;;;33.50;43.50;;;;;;5013160;28;20187;-67
2022/07/05 08:35:54;;;;;;;0.93;0.93;;;33.10;44.40;;;;;;5013115;28;20542;-67
2022/07/05 08:38:19;;;;;;;2.38;0.90;;;32.50;44.30;;;;;;5012892;28;20677;-67
2022/07/05 08:40:49;;;;;;;2.50;1.10;;;31.90;46.30;;;;;;5013219;28;20274;-67
2022/07/05 08:43:16;;;;;;;1.95;1.08;;;31.80;47.10;;;;;;5012849;28;20217;-67
2022/07/05 08:45:44;;;;;;;0.88;0.88;;;31.70;46.60;;;;;;5013361;28;20622;-67
2022/07/05 08:48:10;;;;;;;0.80;0.80;;;32.00;46.40;;;;;;5012932;28;20245;-67
2022/07/05 08:50:39;;;;;;;3.70;1.20;;;32.10;46.60;;;;;;5012848;28;20183;-67
2022/07/05 08:53:05;;;;;;;2.95;1.20;;;32.40;46.90;;;;;;5012961;28;20185;-67
2022/07/05 08:55:32;;;;;;;4.32;1.10;;;33.00;47.00;;;;;;5012927;28;20214;-67
2022/07/05 08:57:58;;;;;;;1.33;0.98;;;33.50;45.70;;;;;;5030355;28;20186;-66
2022/07/05 09:00:23;;;;;;;3.42;0.90;;;33.30;45.50;;;;;;5032463;28;20174;-67
2022/07/05 09:02:50;;;;;;;2.22;1.10;;;33.00;46.20;;;;;;5032482;28;20170;-67
2022/07/05 09:05:18;;;;;;;2.42;0.90;;;33.00;46.80;;;;;;5014827;28;20181;-67
2022/07/05 09:07:58;;;;;;;2.22;1.10;;;33.20;46.80;;;;;;5032354;28;20202;-67
2022/07/05 09:10:28;;;;;;;2.70;1.20;;;33.30;46.00;;;;;;5032166;28;20633;-67
2022/07/05 09:12:55;;;;;;;3.72;1.08;;;33.30;45.30;;;;;;5032225;28;20180;-67
2022/07/05 09:15:20;;;;;;;3.17;1.08;;;32.90;46.50;;;;;;5032190;28;20174;-67
2022/07/05 09:17:47;;;;;;;3.28;1.00;;;32.90;46.10;;;;;;5032170;28;20173;-66
2022/07/05 09:20:15;;;;;;;2.60;1.00;;;33.00;46.20;;;;;;5032039;28;20174;-67
2022/07/05 09:22:47;;;;;;;2.88;1.10;;;32.80;46.40;;;;;;5032066;28;20182;-67
2022/07/05 09:25:32;;;;;;;1.75;1.15;;;32.50;45.90;;;;;;5031921;28;20690;-67
2022/07/05 09:28:02;;;;;;;2.00;0.90;;;32.70;48.80;;;;;;5032065;28;20209;-67
2022/07/05 09:30:41;;;;;;;2.55;1.10;;;33.10;46.80;;;;;;5031977;28;20169;-67
2022/07/05 09:33:15;;;;;;;1.55;0.90;;;33.30;46.40;;;;;;5032086;28;20182;-67
2022/07/05 09:35:42;;;;;;;2.65;0.98;;;33.70;45.10;;;;;;5031175;28;20652;-67
2022/07/05 09:38:19;;;;;;;2.40;0.90;;;34.00;44.50;;;;;;5031610;28;20276;-67
2022/07/05 09:40:56;;;;;;;1.23;0.90;;;34.30;44.30;;;;;;5032035;28;20196;-67
2022/07/05 09:43:23;;;;;;;1.67;1.17;;;34.60;42.60;;;;;;5031894;28;20177;-67
2022/07/05 09:46:03;;;;;;;2.03;1.15;;;34.80;42.10;;;;;;5031893;28;20170;-67
2022/07/05 09:48:30;;;;;;;1.35;0.88;;;34.70;41.40;;;;;;5031662;28;20220;-67
2022/07/05 09:51:09;;;;;;;3.40;1.27;;;34.80;42.40;;;;;;5031805;28;20197;-67
2022/07/05 09:53:45;;;;;;;1.10;0.88;;;34.90;41.80;;;;;;5031611;28;20537;-67
2022/07/05 09:56:10;;;;;;;2.55;0.93;;;35.10;40.70;;;;;;5031561;28;20192;-67
2022/07/05 09:58:36;;;;;;;9.30;1.00;;;34.90;39.30;;;;;;5014019;28;20174;-67
2022/07/05 10:01:24;;;;;;;1.20;0.70;;;34.60;41.30;;;;;;5031685;28;20173;-67
2022/07/05 10:03:54;;;;;;;4.22;0.88;;;34.30;40.70;;;;;;5031669;28;20265;-67
2022/07/05 10:06:23;;;;;;;1.00;0.90;;;33.90;40.50;;;;;;5031611;28;20240;-67
2022/07/05 10:08:49;;;;;;;0.70;0.70;;;33.90;43.40;;;;;;5031582;28;20288;-66
2022/07/05 10:11:18;;;;;;;3.17;0.93;;;34.00;42.20;;;;;;5031413;28;20264;-66
2022/07/05 10:13:51;;;;;;;0.80;0.73;;;33.80;40.80;;;;;;5031528;28;20212;-66
2022/07/05 10:16:17;;;;;;;0.90;0.70;;;33.30;41.10;;;;;;5031388;28;20645;-66
2022/07/05 10:18:54;;;;;;;3.42;0.63;;;33.10;43.30;;;;;;5031478;28;20189;-67
2022/07/05 10:21:20;;;;;;;1.45;0.80;;;32.90;42.00;;;;;;5031428;28;20181;-67
2022/07/05 10:23:48;;;;;;;2.72;0.90;;;32.40;41.80;;;;;;5031491;28;20192;-67
2022/07/05 10:26:15;;;;;;;1.95;0.73;;;32.40;42.20;;;;;;5031408;28;20220;-66
2022/07/05 10:28:46;;;;;;;2.03;0.90;;;32.70;42.90;;;;;;5031397;28;20305;-67
2022/07/05 10:31:13;;;;;;;1.85;1.20;;;33.00;41.70;;;;;;5031347;28;20171;-67
2022/07/05 10:33:40;;;;;;;2.28;0.75;;;33.40;41.50;;;;;;5031265;28;20641;-67
2022/07/05 10:36:06;;;;;;;1.35;0.80;;;33.10;43.60;;;;;;5031492;28;20186;-67
2022/07/05 10:38:37;;;;;;;1.17;0.82;;;32.90;43.80;;;;;;5030844;28;20241;-66
2022/07/05 10:41:05;;;;;;;0.80;0.77;;;32.90;43.30;;;;;;5031448;28;20677;-66
2022/07/05 10:43:31;;;;;;;1.33;0.95;;;33.00;43.30;;;;;;5031115;28;21030;-66
2022/07/05 10:45:57;;;;;;;1.25;0.73;;;33.00;42.30;;;;;;5032228;28;20177;-67
2022/07/05 10:48:25;;;;;;;1.65;1.00;;;32.90;42.60;;;;;;5034888;28;20700;-67
2022/07/05 10:50:54;;;;;;;1.10;1.00;;;33.20;43.40;;;;;;5034806;28;20637;-66
2022/07/05 10:53:22;;;;;;;1.38;0.93;;;33.60;42.80;;;;;;5034810;28;20174;-66
2022/07/05 10:56:03;;;;;;;1.10;0.70;;;33.80;40.70;;;;;;5034736;28;20200;-67
2022/07/05 10:58:36;;;;;;;3.38;1.00;;;33.70;41.50;;;;;;5034675;28;20178;-67
2022/07/05 11:01:20;;;;;;;2.60;0.80;;;33.50;41.10;;;;;;5034825;28;20253;-66
2022/07/05 11:04:05;;;;;;;1.42;0.80;;;33.10;41.30;;;;;;5034539;28;20174;-66
2022/07/05 11:06:46;;;;;;;2.33;1.10;;;32.80;41.70;;;;;;5034494;28;20625;-67
2022/07/05 11:09:11;;;;;;;1.13;1.02;;;32.30;42.70;;;;;;5034341;28;20839;-67
2022/07/05 11:11:41;;;;;;;2.33;0.95;;;31.90;41.70;;;;;;5034433;28;20193;-66
2022/07/05 11:14:29;;;;;;;1.50;0.90;;;31.60;41.20;;;;;;5034524;28;20182;-66
2022/07/05 11:17:11;;;;;;;1.05;0.70;;;31.50;43.30;;;;;;5024712;28;20231;-66
2022/07/05 11:19:58;;;;;;;1.52;0.77;;;31.50;41.50;;;;;;5034260;28;20190;-66
2022/07/05 11:22:24;;;;;;;1.98;1.20;;;31.70;44.50;;;;;;5034287;28;20178;-67
2022/07/05 11:24:49;;;;;;;1.35;0.80;;;31.80;42.80;;;;;;5016397;28;20204;-66
2022/07/05 11:27:15;;;;;;;1.63;0.75;;;32.20;43.20;;;;;;5034101;28;20272;-66
2022/07/05 11:29:57;;;;;;;3.35;0.70;;;32.60;42.20;;;;;;5034051;28;20190;-66
2022/07/05 11:32:28;;;;;;;0.85;0.80;;;32.90;42.40;;;;;;5034117;28;20182;-66
2022/07/05 11:34:55;;;;;;;2.03;1.00;;;32.90;41.90;;;;;;5033952;28;20174;-66
2022/07/05 11:37:26;;;;;;;1.70;0.88;;;32.90;42.00;;;;;;5033913;28;20276;-66
2022/07/05 11:40:07;;;;;;;1.77;0.80;;;32.80;41.60;;;;;;5033847;28;20352;-66
2022/07/05 11:42:34;;;;;;;1.40;1.05;;;33.10;41.00;;;;;;5033751;28;20170;-67
2022/07/05 11:45:00;;;;;;;0.77;0.77;;;33.00;40.60;;;;;;5033852;28;20199;-66
2022/07/05 11:47:26;;;;;;;4.57;1.00;;;33.00;42.40;;;;;;5033688;28;20178;-66
2022/07/05 11:49:58;;;;;;;0.98;0.77;;;32.90;43.20;;;;;;5033840;28;20248;-66
2022/07/05 11:52:28;;;;;;;1.52;0.80;;;32.90;41.10;;;;;;5033703;28;20652;-66
2022/07/05 11:54:54;;;;;;;2.65;0.90;;;32.90;41.60;;;;;;5033703;28;20652;-66
2022/07/05 11:57:20;;;;;;;1.42;0.80;;;32.90;41.30;;;;;;5032888;28;20205;-66
2022/07/05 11:59:47;;;;;;;1.48;0.90;;;33.00;39.90;;;;;;5033617;28;20536;-66
2022/07/05 12:02:12;;;;;;;2.25;0.90;;;33.10;39.70;;;;;;5033308;28;20269;-66
2022/07/05 12:04:38;;;;;;;2.70;0.75;;;33.40;40.80;;;;;;5033398;28;20280;-66
2022/07/05 12:07:04;;;;;;;1.95;0.70;;;33.50;39.50;;;;;;5033611;28;20179;-66
2022/07/05 12:15:05;;;;;;;1.58;1.10;;;32.50;40.30;;;;;;5033672;28;20652;-66
2022/07/05 12:17:33;;;;;;;1.17;0.85;;;32.30;41.50;;;;;;5033077;28;20190;-66
2022/07/05 12:19:59;;;;;;;0.80;0.80;;;32.00;40.60;;;;;;5013550;28;20183;-66
2022/07/05 12:22:36;;;;;;;2.00;1.08;;;31.60;40.00;;;;;;5013372;28;20179;-66
2022/07/05 12:25:03;;;;;;;1.75;0.82;;;31.60;40.50;;;;;;5013189;28;20561;-66
2022/07/05 12:27:30;;;;;;;1.33;0.93;;;31.50;41.50;;;;;;5013208;28;20528;-66
2022/07/05 12:29:56;;;;;;;2.70;1.15;;;31.80;41.20;;;;;;5013183;28;20187;-66
2022/07/05 12:32:22;;;;;;;1.55;0.95;;;32.10;41.20;;;;;;5013218;28;20178;-66
2022/07/05 12:34:48;;;;;;;0.85;0.80;;;32.10;40.60;;;;;;5013174;28;20536;-66
2022/07/05 12:37:21;;;;;;;3.53;0.98;;;31.80;40.00;;;;;;5012944;28;20221;-66
2022/07/05 12:39:48;;;;;;;1.30;0.90;;;31.40;40.30;;;;;;5012929;28;20578;-66
2022/07/05 12:42:33;;;;;;;1.65;1.00;;;31.30;40.80;;;;;;5012851;28;20189;-66
2022/07/05 12:45:18;;;;;;;1.92;0.80;;;31.40;41.80;;;;;;5013045;28;20206;-66
2022/07/05 12:47:54;;;;;;;1.65;1.00;;;31.40;42.60;;;;;;5012844;28;20752;-66
2022/07/05 12:50:25;;;;;;;2.28;1.05;;;31.30;42.70;;;;;;5012828;28;20220;-66
2022/07/05 12:59:08;;;;;;;1.10;1.00;;;31.90;42.40;;;;;;5032750;28;20188;-66
2022/07/05 13:01:43;;;;;;;2.83;1.00;;;32.20;42.90;;;;;;5032243;28;20559;-66
2022/07/05 13:04:14;;;;;;;1.42;0.85;;;32.10;42.00;;;;;;5032386;28;20533;-66
2022/07/05 13:06:57;;;;;;;3.70;1.02;;;32.10;41.60;;;;;;5032259;28;20178;-66